Time;durP1;ratioP1;P1;durP2;ratioP2;P2;SDS_P1;SDS_P2;PMS_P1;PMS_P2;Temp;Humidity;BMP_temperature;BMP_pressure;BME280_temperature;BME280_humidity;BME280_pressure;Samples;Min_cycle;Max_cycle;Signal;HPM_P1;HPM_P2
2022/03/18 00:00:01;;;;;;;40.50;22.17;;;;;;;4.80;100.00;103427.75;5086694;28;20186;-73
2022/03/18 00:02:27;;;;;;;40.53;21.98;;;;;;;4.80;100.00;103430.50;5100708;28;20107;-75
2022/03/18 00:04:54;;;;;;;35.78;20.05;;;;;;;4.78;100.00;103431.91;5093630;28;20048;-74
2022/03/18 00:07:21;;;;;;;41.22;19.73;;;;;;;4.73;100.00;103429.25;5090882;28;20047;-74
2022/03/18 00:09:48;;;;;;;37.28;20.63;;;;;;;4.74;100.00;103444.59;5101225;28;20062;-72
2022/03/18 00:12:16;;;;;;;35.88;19.38;;;;;;;4.72;100.00;103444.06;5089591;28;20086;-73
2022/03/18 00:14:43;;;;;;;39.50;19.85;;;;;;;4.68;100.00;103437.53;5092000;28;20106;-72
2022/03/18 00:17:11;;;;;;;38.97;19.65;;;;;;;4.64;100.00;103445.53;5089883;28;20114;-73
2022/03/18 00:19:40;;;;;;;40.90;19.38;;;;;;;4.62;100.00;103442.25;5094894;28;20069;-74
2022/03/18 00:22:07;;;;;;;34.28;18.38;;;;;;;4.60;100.00;103454.63;5089867;28;20147;-72
2022/03/18 00:24:34;;;;;;;37.03;18.83;;;;;;;4.56;100.00;103448.09;5088070;28;20055;-74
2022/03/18 00:27:08;;;;;;;41.38;19.40;;;;;;;4.53;100.00;103452.22;5085822;28;20072;-74
2022/03/18 00:29:35;;;;;;;37.25;18.85;;;;;;;4.51;100.00;103454.44;5091149;28;20148;-73
2022/03/18 00:32:02;;;;;;;37.45;18.42;;;;;;;4.45;100.00;103452.03;5089328;28;20052;-72
2022/03/18 00:34:33;;;;;;;44.08;19.40;;;;;;;4.45;100.00;103452.88;5090199;28;20048;-73
2022/03/18 00:36:59;;;;;;;35.30;19.20;;;;;;;4.46;100.00;103449.00;5090471;28;20135;-72
2022/03/18 00:39:26;;;;;;;48.47;21.90;;;;;;;4.44;100.00;103451.25;5092031;28;20134;-72
2022/03/18 00:41:52;;;;;;;48.55;22.60;;;;;;;4.41;100.00;103446.34;5092221;28;20066;-74
2022/03/18 00:44:20;;;;;;;55.55;24.45;;;;;;;4.41;100.00;103445.50;5096532;28;20370;-74
2022/03/18 00:46:47;;;;;;;41.22;20.77;;;;;;;4.43;100.00;103454.25;5096666;28;20123;-74
2022/03/18 00:52:05;;;;;;;41.80;21.77;;;;;;;4.37;100.00;103455.41;5092755;28;20134;-73
2022/03/18 00:54:35;;;;;;;41.65;20.75;;;;;;;4.36;100.00;103473.78;5091975;28;20051;-75
2022/03/18 00:57:03;;;;;;;40.78;20.80;;;;;;;4.37;100.00;103472.69;5083928;28;20123;-74
2022/03/18 00:59:30;;;;;;;37.97;20.95;;;;;;;4.32;100.00;103475.47;5081900;28;20058;-73
2022/03/18 01:01:57;;;;;;;41.10;21.58;;;;;;;4.28;100.00;103468.94;5090138;28;20174;-72
2022/03/18 01:04:26;;;;;;;37.60;18.90;;;;;;;4.26;100.00;103475.81;5085557;28;20428;-74
2022/03/18 01:06:52;;;;;;;40.97;19.52;;;;;;;4.22;100.00;103475.56;5088686;28;20140;-73
2022/03/18 01:09:21;;;;;;;36.83;18.98;;;;;;;4.17;100.00;103472.06;5089446;28;20052;-73
2022/03/18 01:11:50;;;;;;;39.58;20.77;;;;;;;4.13;100.00;103482.78;5094409;28;20079;-74
2022/03/18 01:14:17;;;;;;;32.17;16.77;;;;;;;4.11;100.00;103481.41;5094241;28;20056;-74
2022/03/18 01:16:44;;;;;;;32.15;15.07;;;;;;;4.09;100.00;103481.72;5092133;28;20044;-75
2022/03/18 01:19:12;;;;;;;32.30;16.13;;;;;;;4.08;100.00;103482.81;5088459;28;20063;-74
2022/03/18 01:21:38;;;;;;;29.52;14.30;;;;;;;4.08;100.00;103485.56;5087918;28;20131;-74
2022/03/18 01:24:05;;;;;;;31.00;13.90;;;;;;;4.05;100.00;103482.59;5087550;28;20130;-75
2022/03/18 01:26:32;;;;;;;32.20;15.38;;;;;;;4.05;100.00;103488.88;5088792;28;20048;-73
2022/03/18 01:28:58;;;;;;;26.33;13.55;;;;;;;3.99;100.00;103492.78;5087848;28;20428;-73
2022/03/18 01:31:26;;;;;;;34.45;14.70;;;;;;;3.94;100.00;103492.81;5085940;28;20147;-73
2022/03/18 01:33:54;;;;;;;28.92;13.75;;;;;;;3.92;100.00;103500.47;5086530;28;20050;-73
2022/03/18 01:36:20;;;;;;;28.17;14.27;;;;;;;3.94;100.00;103497.44;5087924;28;20533;-73
2022/03/18 01:38:47;;;;;;;28.42;13.40;;;;;;;3.95;100.00;103497.16;5086598;28;20144;-73
2022/03/18 01:41:14;;;;;;;25.73;13.18;;;;;;;3.97;100.00;103500.47;5087170;28;20258;-73
2022/03/18 01:43:42;;;;;;;27.23;13.65;;;;;;;3.95;100.00;103507.31;5087563;28;20074;-73
2022/03/18 01:46:09;;;;;;;25.40;12.15;;;;;;;3.92;100.00;103507.91;5088260;28;20093;-75
2022/03/18 01:48:36;;;;;;;23.92;12.20;;;;;;;3.90;100.00;103510.09;5087839;28;20105;-73
2022/03/18 01:51:07;;;;;;;28.23;12.40;;;;;;;3.87;100.00;103505.19;5078589;28;20063;-73
2022/03/18 01:53:35;;;;;;;25.02;13.13;;;;;;;3.85;100.00;103502.72;5086424;28;20069;-73
2022/03/18 01:56:02;;;;;;;23.67;11.93;;;;;;;3.86;100.00;103509.03;5085335;28;20050;-76
2022/03/18 01:58:29;;;;;;;22.75;10.73;;;;;;;3.88;100.00;103513.13;5087133;28;20048;-73
2022/03/18 02:00:56;;;;;;;26.40;11.57;;;;;;;3.84;100.00;103517.53;5086485;28;20172;-76
2022/03/18 02:03:23;;;;;;;22.33;10.55;;;;;;;3.82;100.00;103519.75;5085473;28;20097;-73
2022/03/18 02:05:50;;;;;;;21.15;8.88;;;;;;;3.76;100.00;103520.88;5076793;28;20048;-74
2022/03/18 02:08:17;;;;;;;29.55;10.23;;;;;;;3.76;100.00;103520.88;5095648;28;20526;-73
2022/03/18 02:10:44;;;;;;;21.05;9.93;;;;;;;3.73;100.00;103520.63;5086633;28;20048;-72
2022/03/18 02:13:10;;;;;;;24.98;9.43;;;;;;;3.70;100.00;103529.41;5087230;28;20206;-73
2022/03/18 02:15:37;;;;;;;22.95;9.98;;;;;;;3.65;100.00;103524.75;5087603;28;20059;-75
2022/03/18 02:18:05;;;;;;;22.42;8.93;;;;;;;3.62;100.00;103533.56;5087221;28;20050;-73
2022/03/18 02:20:34;;;;;;;28.25;9.82;;;;;;;3.63;100.00;103537.13;5087417;28;20569;-73
2022/03/18 02:23:01;;;;;;;22.95;10.43;;;;;;;3.55;100.00;103538.53;5085981;28;20135;-76
2022/03/18 02:25:29;;;;;;;22.38;8.48;;;;;;;3.59;100.00;103549.72;5087242;28;20058;-73
2022/03/18 02:27:58;;;;;;;20.63;8.95;;;;;;;3.58;100.00;103551.63;5087375;28;20051;-74
2022/03/18 02:30:28;;;;;;;19.23;9.27;;;;;;;3.55;100.00;103554.16;5086715;28;20050;-73
2022/03/18 02:32:55;;;;;;;29.67;9.68;;;;;;;3.49;100.00;103547.88;5085713;28;20080;-74
2022/03/18 02:35:21;;;;;;;21.35;9.52;;;;;;;3.49;100.00;103550.63;5087515;28;20692;-73
2022/03/18 02:37:48;;;;;;;22.98;9.85;;;;;;;3.46;100.00;103558.56;5086604;28;20564;-73
2022/03/18 02:40:15;;;;;;;22.73;9.15;;;;;;;3.42;100.00;103558.31;5087169;28;20086;-73
2022/03/18 02:42:43;;;;;;;21.58;9.10;;;;;;;3.41;100.00;103550.38;5085493;28;20550;-74
2022/03/18 02:45:11;;;;;;;20.70;9.50;;;;;;;3.37;100.00;103552.84;5087782;28;20101;-74
2022/03/18 02:47:38;;;;;;;22.05;8.98;;;;;;;3.38;100.00;103557.25;5079111;28;20407;-73
2022/03/18 02:50:05;;;;;;;19.08;8.65;;;;;;;3.40;100.00;103559.66;5085504;28;20569;-73
2022/03/18 02:52:32;;;;;;;20.55;8.35;;;;;;;3.31;100.00;103553.97;5086371;28;20052;-75
2022/03/18 02:54:58;;;;;;;22.13;9.10;;;;;;;3.34;100.00;103569.03;5089244;28;20052;-75
2022/03/18 02:57:25;;;;;;;18.75;7.93;;;;;;;3.32;100.00;103573.94;5088957;28;20139;-73
2022/03/18 02:59:53;;;;;;;18.25;8.20;;;;;;;3.26;100.00;103564.94;5090322;28;20508;-73
2022/03/18 03:02:20;;;;;;;17.75;7.88;;;;;;;3.26;100.00;103569.59;5090133;28;20707;-75
2022/03/18 03:10:16;;;;;;;18.33;8.77;;;;;;;3.14;100.00;103589.06;5094865;28;20052;-73
2022/03/18 03:12:43;;;;;;;19.58;8.57;;;;;;;3.13;100.00;103594.84;5089003;28;20052;-73
2022/03/18 03:15:10;;;;;;;19.25;8.98;;;;;;;3.08;100.00;103589.34;5091675;28;20135;-73
2022/03/18 03:17:36;;;;;;;23.77;9.32;;;;;;;3.02;100.00;103590.47;5089614;28;20083;-75
2022/03/18 03:20:03;;;;;;;21.55;8.45;;;;;;;3.03;100.00;103592.13;5090232;28;20139;-73
2022/03/18 03:22:30;;;;;;;22.63;10.02;;;;;;;3.06;100.00;103592.38;5090188;28;20419;-74
2022/03/18 03:24:57;;;;;;;24.15;9.32;;;;;;;3.09;100.00;103591.00;5090275;28;20048;-73
2022/03/18 03:27:29;;;;;;;20.20;7.90;;;;;;;3.06;100.00;103584.16;5090606;28;20058;-73
2022/03/18 03:30:00;;;;;;;20.38;8.57;;;;;;;3.02;100.00;103595.94;5089138;28;20575;-74
2022/03/18 03:32:27;;;;;;;22.95;8.15;;;;;;;2.97;100.00;103596.75;5089776;28;20055;-75
2022/03/18 03:34:55;;;;;;;18.90;8.85;;;;;;;2.90;100.00;103603.63;5090318;28;20139;-73
2022/03/18 03:37:21;;;;;;;21.00;8.57;;;;;;;2.87;100.00;103601.44;5088654;28;20054;-73
2022/03/18 03:39:48;;;;;;;22.80;7.95;;;;;;;2.84;100.00;103602.81;5089777;28;20147;-73
2022/03/18 03:42:15;;;;;;;16.70;7.43;;;;;;;2.80;100.00;103598.97;5088856;28;20139;-74
2022/03/18 03:44:41;;;;;;;16.15;7.18;;;;;;;2.77;100.00;103605.03;5089683;28;20048;-74
2022/03/18 03:47:08;;;;;;;17.17;7.70;;;;;;;2.75;100.00;103607.19;5089916;28;20044;-74
2022/03/18 03:49:34;;;;;;;23.23;7.85;;;;;;;2.73;100.00;103604.75;5089163;28;20048;-73
2022/03/18 03:52:01;;;;;;;19.95;7.55;;;;;;;2.68;100.00;103601.19;5088123;28;20091;-73
2022/03/18 03:54:30;;;;;;;19.35;9.13;;;;;;;2.66;100.00;103606.09;5090181;28;20072;-73
2022/03/18 03:56:56;;;;;;;20.88;8.02;;;;;;;2.65;100.00;103613.50;5088083;28;20432;-73
2022/03/18 03:59:23;;;;;;;19.02;8.40;;;;;;;2.64;100.00;103616.50;5088867;28;20402;-73
2022/03/18 04:01:49;;;;;;;19.23;7.20;;;;;;;2.56;100.00;103608.84;5088392;28;20132;-74
2022/03/18 04:04:16;;;;;;;17.95;7.88;;;;;;;2.52;100.00;103614.06;5087268;28;20162;-75
2022/03/18 04:06:43;;;;;;;24.30;7.60;;;;;;;2.54;100.00;103624.72;5086390;28;20135;-73
2022/03/18 04:09:09;;;;;;;21.45;7.82;;;;;;;2.52;100.00;103618.69;5101474;28;20278;-75
2022/03/18 04:11:36;;;;;;;20.10;8.35;;;;;;;2.52;100.00;103630.47;5088264;28;20051;-74
2022/03/18 04:14:03;;;;;;;17.65;7.57;;;;;;;2.51;100.00;103630.72;5089657;28;20050;-75
2022/03/18 04:16:29;;;;;;;20.02;7.57;;;;;;;2.49;100.00;103624.69;5089382;28;20452;-73
2022/03/18 04:18:56;;;;;;;20.77;8.43;;;;;;;2.48;100.00;103623.91;5089370;28;20055;-74
2022/03/18 04:21:23;;;;;;;19.42;8.32;;;;;;;2.46;100.00;103636.19;5089171;28;20052;-73
2022/03/18 04:23:49;;;;;;;22.02;8.18;;;;;;;2.43;100.00;103636.75;5087963;28;20075;-74
2022/03/18 04:26:16;;;;;;;16.77;7.05;;;;;;;2.37;100.00;103626.91;5088827;28;20596;-73
2022/03/18 04:28:44;;;;;;;25.45;8.88;;;;;;;2.36;100.00;103631.53;5088188;28;20054;-72
2022/03/18 04:31:10;;;;;;;19.17;8.15;;;;;;;2.36;100.00;103638.91;5087956;28;20421;-72
2022/03/18 04:33:37;;;;;;;19.23;7.72;;;;;;;2.33;100.00;103647.66;5087982;28;20056;-72
2022/03/18 04:36:04;;;;;;;21.08;8.65;;;;;;;2.31;100.00;103641.63;5089224;28;20052;-75
2022/03/18 04:38:30;;;;;;;20.33;7.90;;;;;;;2.30;100.00;103637.28;5088167;28;20172;-72
2022/03/18 04:40:57;;;;;;;19.92;7.55;;;;;;;2.31;100.00;103639.75;5088526;28;20504;-72
2022/03/18 04:43:24;;;;;;;19.08;7.80;;;;;;;2.27;100.00;103648.75;5088285;28;20048;-73
2022/03/18 04:45:51;;;;;;;20.23;8.90;;;;;;;2.21;100.00;103655.28;5088439;28;20108;-73
2022/03/18 04:48:17;;;;;;;20.42;7.18;;;;;;;2.22;100.00;103663.22;5088772;28;20159;-73
2022/03/18 04:50:44;;;;;;;20.58;8.60;;;;;;;2.21;100.00;103661.56;5086865;28;20155;-74
2022/03/18 04:53:11;;;;;;;19.85;7.30;;;;;;;2.18;100.00;103664.84;5086935;28;20091;-73
2022/03/18 04:55:37;;;;;;;21.13;8.07;;;;;;;2.20;100.00;103672.78;5088645;28;20139;-73
2022/03/18 04:58:04;;;;;;;22.58;8.95;;;;;;;2.16;100.00;103677.16;5087234;28;20044;-75
2022/03/18 05:00:30;;;;;;;21.08;8.25;;;;;;;2.13;100.00;103674.94;5088406;28;20051;-74
2022/03/18 05:02:57;;;;;;;23.42;8.50;;;;;;;2.13;100.00;103675.75;5087968;28;20044;-73
2022/03/18 05:05:24;;;;;;;21.10;8.30;;;;;;;2.13;100.00;103681.22;5074304;28;20118;-72
2022/03/18 05:07:52;;;;;;;18.88;7.75;;;;;;;2.12;100.00;103685.03;5088839;28;20048;-73
2022/03/18 05:10:19;;;;;;;23.05;7.82;;;;;;;2.06;100.00;103683.38;5088165;28;20063;-75
2022/03/18 05:12:46;;;;;;;17.13;7.97;;;;;;;2.09;100.00;103696.50;5086816;28;20056;-75
2022/03/18 05:15:13;;;;;;;18.95;8.05;;;;;;;2.16;100.00;103702.53;5088294;28;20256;-73
2022/03/18 05:17:40;;;;;;;20.10;8.68;;;;;;;2.22;100.00;103706.94;5087164;28;20048;-74
2022/03/18 05:20:10;;;;;;;26.30;8.43;;;;;;;2.24;100.00;103712.13;5088009;28;20052;-73
2022/03/18 05:22:36;;;;;;;20.90;8.20;;;;;;;2.25;100.00;103722.78;5086253;28;20167;-73
2022/03/18 05:25:03;;;;;;;21.30;8.50;;;;;;;2.18;100.00;103711.28;5087981;28;20131;-73
2022/03/18 05:27:29;;;;;;;21.05;10.93;;;;;;;2.17;100.00;103720.56;5087095;28;20155;-73
2022/03/18 05:29:56;;;;;;;25.75;9.70;;;;;;;2.18;100.00;103737.78;5087775;28;20135;-73
2022/03/18 05:32:23;;;;;;;23.52;8.85;;;;;;;2.12;100.00;103733.38;5087001;28;20510;-73
2022/03/18 05:34:49;;;;;;;25.27;10.88;;;;;;;2.11;100.00;103746.25;5088020;28;20083;-73
2022/03/18 05:37:16;;;;;;;21.38;9.48;;;;;;;2.12;100.00;103745.16;5087509;28;20583;-76
2022/03/18 05:39:42;;;;;;;18.02;8.65;;;;;;;2.10;100.00;103746.50;5086604;28;20408;-73
2022/03/18 05:42:09;;;;;;;23.00;8.25;;;;;;;2.14;100.00;103750.34;5088041;28;20090;-73
2022/03/18 05:44:35;;;;;;;20.98;8.68;;;;;;;2.14;100.00;103748.44;5086827;28;20134;-73
2022/03/18 05:47:02;;;;;;;22.00;9.63;;;;;;;2.10;100.00;103750.03;5087687;28;20144;-75
2022/03/18 05:49:29;;;;;;;22.70;8.82;;;;;;;2.10;100.00;103741.03;5087740;28;20048;-73
2022/03/18 05:51:56;;;;;;;21.27;9.85;;;;;;;2.08;100.00;103740.47;5086692;28;20568;-73
2022/03/18 05:54:22;;;;;;;22.77;8.38;;;;;;;2.07;100.00;103752.50;5088355;28;20048;-75
2022/03/18 05:56:55;;;;;;;23.10;9.25;;;;;;;2.07;100.00;103758.78;5087993;28;20113;-73
2022/03/18 05:59:27;;;;;;;20.88;9.10;;;;;;;2.14;100.00;103772.19;5086181;28;20069;-73
2022/03/18 06:01:56;;;;;;;20.02;9.13;;;;;;;2.15;100.00;103774.66;5085692;28;20083;-75
2022/03/18 06:04:25;;;;;;;21.25;9.88;;;;;;;2.10;100.00;103779.28;5087451;28;20048;-73
2022/03/18 06:06:52;;;;;;;23.40;9.70;;;;;;;2.11;100.00;103789.13;5088256;28;20054;-73
2022/03/18 06:12:06;;;;;;;23.38;9.45;;;;;;;2.10;100.00;103791.00;5087458;28;20139;-74
2022/03/18 06:14:32;;;;;;;25.08;10.38;;;;;;;2.12;100.00;103796.22;5086571;28;20055;-73
2022/03/18 06:17:04;;;;;;;29.48;10.60;;;;;;;2.05;100.00;103780.06;5086848;28;20143;-74
2022/03/18 06:19:32;;;;;;;19.08;9.25;;;;;;;2.06;100.00;103786.38;5088703;28;20064;-75
2022/03/18 06:21:59;;;;;;;25.50;10.52;;;;;;;2.13;100.00;103795.16;5087302;28;20121;-73
2022/03/18 06:24:26;;;;;;;23.85;10.63;;;;;;;2.18;100.00;103792.41;5088377;28;20192;-75
2022/03/18 06:26:54;;;;;;;18.27;8.88;;;;;;;2.24;100.00;103800.41;5087296;28;20044;-73
2022/03/18 06:29:21;;;;;;;26.02;10.25;;;;;;;2.26;100.00;103802.84;5087995;28;20500;-73
2022/03/18 06:31:49;;;;;;;21.70;10.05;;;;;;;2.28;100.00;103803.41;5091212;28;20624;-75
2022/03/18 06:34:16;;;;;;;22.00;12.32;;;;;;;2.32;100.00;103809.97;5090787;28;20062;-74
2022/03/18 06:36:43;;;;;;;23.15;10.10;;;;;;;2.32;100.00;103809.97;5089079;28;20039;-74
2022/03/18 06:39:10;;;;;;;23.30;10.05;;;;;;;2.35;100.00;103823.94;5099056;28;20059;-76
2022/03/18 06:41:37;;;;;;;23.48;8.98;;;;;;;2.35;100.00;103828.56;5089706;28;20798;-75
2022/03/18 06:44:07;;;;;;;21.67;9.07;;;;;;;2.39;100.00;103830.50;5090584;28;20043;-76
2022/03/18 06:46:33;;;;;;;21.88;8.68;;;;;;;2.45;100.00;103828.59;5090615;28;20093;-75
2022/03/18 06:49:00;;;;;;;21.33;8.60;;;;;;;2.53;100.00;103836.28;5091673;28;20084;-75
2022/03/18 06:51:27;;;;;;;23.30;9.48;;;;;;;2.57;100.00;103845.59;5090136;28;20056;-76
2022/03/18 06:53:54;;;;;;;22.10;9.43;;;;;;;2.61;100.00;103842.03;5092489;28;20101;-76
2022/03/18 06:56:21;;;;;;;20.38;8.50;;;;;;;2.69;100.00;103848.91;5103161;28;20058;-77
2022/03/18 06:58:48;;;;;;;22.42;9.23;;;;;;;2.74;100.00;103843.47;5090689;28;20678;-75
2022/03/18 07:01:14;;;;;;;26.08;10.95;;;;;;;2.81;100.00;103843.22;5090509;28;20059;-75
2022/03/18 07:03:41;;;;;;;27.02;10.43;;;;;;;2.86;100.00;103837.75;5090283;28;20066;-76
2022/03/18 07:06:08;;;;;;;24.50;10.85;;;;;;;2.98;100.00;103841.06;5094382;28;20496;-75
2022/03/18 07:08:35;;;;;;;26.35;11.27;;;;;;;3.06;100.00;103835.88;5091198;28;20054;-74
2022/03/18 07:11:03;;;;;;;30.42;11.85;;;;;;;3.18;100.00;103843.81;5089354;28;20113;-78
2022/03/18 07:13:29;;;;;;;26.88;10.85;;;;;;;3.25;100.00;103830.69;5089394;28;20052;-76
2022/03/18 07:17:54;;;;;;;32.47;12.18;;;;;;;3.38;100.00;103830.97;5088803;28;20610;-75
2022/03/18 07:18:43;;;;;;;28.98;12.98;;;;;;;3.54;100.00;103829.84;5089688;28;20072;-75
2022/03/18 07:21:13;;;;;;;28.38;13.18;;;;;;;3.71;100.00;103824.91;5097926;28;20047;-74
2022/03/18 07:23:39;;;;;;;30.75;14.90;;;;;;;3.85;100.00;103820.50;5091219;28;20143;-74
2022/03/18 07:26:06;;;;;;;32.20;14.93;;;;;;;4.03;100.00;103827.31;5081485;28;20055;-76
2022/03/18 07:28:33;;;;;;;30.40;15.18;;;;;;;4.19;100.00;103832.44;5090379;28;20048;-73
2022/03/18 07:30:59;;;;;;;31.75;15.70;;;;;;;4.34;100.00;103839.81;5089403;28;20296;-73
2022/03/18 07:33:26;;;;;;;33.80;14.43;;;;;;;4.50;100.00;103836.72;5091173;28;20052;-77
2022/03/18 07:35:53;;;;;;;31.58;13.73;;;;;;;4.65;100.00;103844.88;5090876;28;20079;-73
2022/03/18 07:38:20;;;;;;;26.02;14.05;;;;;;;4.79;100.00;103843.16;5089010;28;20463;-73
2022/03/18 07:40:52;;;;;;;29.80;13.05;;;;;;;4.91;100.00;103834.56;5092517;28;20164;-74
2022/03/18 07:43:18;;;;;;;25.55;12.35;;;;;;;5.06;100.00;103837.19;5087596;28;20044;-75
2022/03/18 07:45:45;;;;;;;25.35;12.40;;;;;;;5.19;100.00;103844.81;5089740;28;20056;-72
2022/03/18 07:48:12;;;;;;;25.08;11.82;;;;;;;5.31;100.00;103845.28;5090287;28;20058;-73
2022/03/18 07:50:41;;;;;;;29.45;12.90;;;;;;;5.43;100.00;103846.53;5088759;28;20055;-73
2022/03/18 07:53:09;;;;;;;26.05;12.27;;;;;;;5.54;100.00;103832.72;5088885;28;20052;-74
2022/03/18 07:55:38;;;;;;;28.00;12.88;;;;;;;5.65;100.00;103831.50;5089024;28;20072;-75
2022/03/18 07:58:06;;;;;;;28.75;11.52;;;;;;;5.83;100.00;103833.56;5089829;28;20048;-76
2022/03/18 08:00:33;;;;;;;33.35;12.60;;;;;;;5.96;100.00;103838.38;5090234;28;20421;-75
2022/03/18 08:03:01;;;;;;;28.35;10.68;;;;;;;6.07;100.00;103848.16;5089264;28;20067;-73
2022/03/18 08:05:27;;;;;;;35.08;11.93;;;;;;;6.22;100.00;103842.47;5088855;28;20439;-73
2022/03/18 08:07:56;;;;;;;21.75;11.10;;;;;;;6.29;100.00;103837.44;5093598;28;20044;-72
2022/03/18 08:10:24;;;;;;;20.27;9.73;;;;;;;6.45;100.00;103849.91;5087452;28;20153;-73
2022/03/18 08:12:52;;;;;;;23.70;9.45;;;;;;;6.59;100.00;103845.31;5088674;28;20544;-73
2022/03/18 08:15:20;;;;;;;21.63;9.40;;;;;;;6.73;100.00;103857.25;5089006;28;20071;-72
2022/03/18 08:17:51;;;;;;;23.80;10.32;;;;;;;6.85;100.00;103855.69;5089520;28;20154;-72
2022/03/18 08:20:20;;;;;;;23.40;9.13;;;;;;;6.97;100.00;103855.25;5089543;28;20044;-73
2022/03/18 08:22:49;;;;;;;24.00;9.63;;;;;;;7.11;100.00;103875.41;5088646;28;20051;-75
2022/03/18 08:25:16;;;;;;;23.15;8.98;;;;;;;7.23;100.00;103879.34;5089961;28;20109;-73
2022/03/18 08:27:42;;;;;;;17.33;7.60;;;;;;;7.36;100.00;103877.78;5089571;28;20130;-75
2022/03/18 08:30:13;;;;;;;18.10;7.85;;;;;;;7.46;100.00;103889.44;5086307;28;20056;-73
2022/03/18 08:32:40;;;;;;;19.42;6.40;;;;;;;7.60;100.00;103893.06;5089047;28;20060;-73
2022/03/18 08:35:08;;;;;;;21.85;8.20;;;;;;;7.70;100.00;103890.16;5089449;28;20445;-75
2022/03/18 08:40:21;;;;;;;26.38;10.02;;;;;;;7.97;100.00;103903.22;5084916;28;20090;-75
2022/03/18 08:42:48;;;;;;;34.28;12.48;;;;;;;8.10;100.00;103905.16;5088958;28;20146;-73
2022/03/18 08:45:15;;;;;;;25.30;9.90;;;;;;;8.24;100.00;103908.81;5088294;28;20140;-74
2022/03/18 08:47:41;;;;;;;34.70;12.32;;;;;;;8.36;100.00;103909.09;5087233;28;20052;-73
2022/03/18 08:50:09;;;;;;;17.02;7.70;;;;;;;8.52;100.00;103906.84;5089034;28;20101;-73
2022/03/18 08:52:35;;;;;;;18.08;6.80;;;;;;;8.65;100.00;103917.91;5085912;28;20062;-76
2022/03/18 08:55:04;;;;;;;25.45;6.35;;;;;;;8.75;99.03;103914.94;5087501;28;20114;-75
2022/03/18 08:57:33;;;;;;;13.52;4.50;;;;;;;8.89;96.27;103915.75;5087196;28;20076;-75
2022/03/18 09:00:00;;;;;;;17.65;6.68;;;;;;;9.00;94.68;103927.38;5088591;28;20063;-74
2022/03/18 09:02:26;;;;;;;17.75;5.00;;;;;;;9.10;92.77;103933.50;5087773;28;20047;-73
2022/03/18 09:04:53;;;;;;;15.25;5.07;;;;;;;9.21;91.04;103937.66;5089110;28;20048;-75
2022/03/18 09:07:20;;;;;;;16.08;5.32;;;;;;;9.33;91.19;103937.94;5092045;28;20079;-75
2022/03/18 09:09:46;;;;;;;16.48;5.68;;;;;;;9.42;91.06;103929.72;5091546;28;20079;-73
2022/03/18 09:12:16;;;;;;;20.23;6.07;;;;;;;9.59;90.36;103947.25;5088762;28;20056;-72
2022/03/18 09:14:44;;;;;;;14.88;5.63;;;;;;;9.74;89.22;103946.91;5089651;28;20051;-71
2022/03/18 09:17:10;;;;;;;5.43;2.72;;;;;;;9.89;86.40;103940.97;5087561;28;20101;-73
2022/03/18 09:19:37;;;;;;;13.10;4.93;;;;;;;10.02;83.61;103945.63;5086325;28;20062;-72
2022/03/18 09:22:08;;;;;;;16.80;6.15;;;;;;;10.15;82.63;103943.94;5089122;28;20252;-74
2022/03/18 09:24:36;;;;;;;13.88;5.18;;;;;;;10.27;81.31;103942.22;5088820;28;20062;-71
2022/03/18 09:27:05;;;;;;;20.05;6.60;;;;;;;10.42;82.67;103944.59;5090403;28;20135;-71
2022/03/18 09:29:31;;;;;;;17.42;5.80;;;;;;;10.54;80.26;103952.28;5089384;28;20047;-74
2022/03/18 09:31:58;;;;;;;16.20;5.88;;;;;;;10.67;79.95;103947.78;5087554;28;20125;-76
2022/03/18 09:34:25;;;;;;;18.27;6.85;;;;;;;10.76;78.71;103954.97;5088376;28;20760;-77
2022/03/18 09:36:54;;;;;;;22.08;6.38;;;;;;;10.90;77.07;103960.41;5089100;28;20504;-74
2022/03/18 09:39:22;;;;;;;16.55;6.32;;;;;;;11.03;77.54;103963.03;5088103;28;20504;-75
2022/03/18 09:41:49;;;;;;;15.65;5.68;;;;;;;11.16;75.60;103964.84;5084276;28;20059;-75
2022/03/18 09:44:17;;;;;;;12.65;4.70;;;;;;;11.26;74.82;103961.78;5087991;28;20072;-73
2022/03/18 09:46:50;;;;;;;18.98;4.88;;;;;;;11.52;75.49;103967.34;5087024;28;20055;-74
2022/03/18 09:49:19;;;;;;;16.35;4.93;;;;;;;11.74;73.18;103970.00;5086909;28;20082;-73
2022/03/18 09:51:48;;;;;;;13.98;4.68;;;;;;;11.89;68.62;103981.41;5084929;28;20062;-75
2022/03/18 09:54:17;;;;;;;17.48;4.22;;;;;;;12.00;68.49;103977.16;5087664;28;20052;-74
2022/03/18 09:56:46;;;;;;;12.30;4.45;;;;;;;12.09;65.73;103974.34;5087908;28;20455;-73
2022/03/18 09:59:14;;;;;;;13.05;5.97;;;;;;;12.18;64.82;103980.69;5086947;28;20051;-72
2022/03/18 10:01:41;;;;;;;13.27;4.72;;;;;;;12.30;65.71;103978.06;5087401;28;20105;-73
2022/03/18 10:04:11;;;;;;;12.10;4.32;;;;;;;12.35;63.39;103983.41;5088504;28;20051;-73
2022/03/18 10:06:42;;;;;;;10.75;3.47;;;;;;;12.41;64.68;103982.94;5088035;28;20071;-73
2022/03/18 10:09:11;;;;;;;11.45;2.70;;;;;;;12.54;63.27;103979.13;5091468;28;20129;-71
2022/03/18 10:11:38;;;;;;;9.85;3.13;;;;;;;12.60;61.37;103986.13;5090579;28;20060;-70
2022/03/18 10:14:07;;;;;;;6.80;2.53;;;;;;;12.69;61.20;103986.09;5093128;28;20121;-72
2022/03/18 10:16:41;;;;;;;12.45;3.85;;;;;;;12.78;61.98;103981.31;5091620;28;20147;-74
2022/03/18 10:19:12;;;;;;;13.07;4.25;;;;;;;12.79;62.20;103983.75;5092310;28;20040;-71
2022/03/18 10:22:02;;;;;;;17.20;4.38;;;;;;;12.90;61.62;103971.09;5089525;28;20048;-72
2022/03/18 10:24:37;;;;;;;12.70;4.03;;;;;;;13.01;62.52;103979.91;5092078;28;20458;-72
2022/03/18 10:27:14;;;;;;;11.15;3.95;;;;;;;13.06;61.00;103976.13;5089989;28;20048;-70
2022/03/18 10:29:49;;;;;;;10.65;4.25;;;;;;;13.21;62.64;103979.13;5088848;28;20086;-72
2022/03/18 10:32:18;;;;;;;3.10;1.73;;;;;;;13.30;60.43;103977.13;5089418;28;20101;-73
2022/03/18 10:37:41;;;;;;;10.82;4.00;;;;;;;13.49;60.35;103979.41;5090850;28;20174;-74
2022/03/18 10:40:09;;;;;;;16.65;5.22;;;;;;;13.54;59.89;103982.00;5088490;28;20144;-74
2022/03/18 10:42:36;;;;;;;14.40;4.03;;;;;;;13.67;58.81;103986.50;5086455;28;20135;-72
2022/03/18 10:45:03;;;;;;;11.73;3.15;;;;;;;13.75;57.16;103977.25;5091983;28;20063;-73
2022/03/18 10:47:41;;;;;;;14.77;4.10;;;;;;;13.86;55.90;103984.84;5086896;28;20048;-76
2022/03/18 10:50:10;;;;;;;13.95;3.85;;;;;;;14.00;56.19;103988.13;5086485;28;20428;-75
2022/03/18 10:52:38;;;;;;;11.98;3.50;;;;;;;14.07;54.97;103988.41;5075871;28;20062;-76
2022/03/18 10:55:17;;;;;;;10.05;3.95;;;;;;;14.17;53.42;104001.09;5072457;28;20086;-75
2022/03/18 10:57:56;;;;;;;16.00;3.75;;;;;;;14.30;54.46;103994.41;5065951;28;20131;-73
2022/03/18 11:00:25;;;;;;;10.27;3.33;;;;;;;14.40;54.88;104005.13;5094931;28;20091;-73
2022/03/18 11:02:53;;;;;;;11.40;3.72;;;;;;;14.50;54.01;103979.59;5084728;28;20113;-73
2022/03/18 11:05:21;;;;;;;10.70;3.67;;;;;;;14.60;53.56;103987.50;5088265;28;20059;-74
2022/03/18 11:07:51;;;;;;;18.02;3.88;;;;;;;14.79;51.73;103987.78;5081700;28;20124;-74
2022/03/18 11:13:06;;;;;;;11.13;3.40;;;;;;;15.17;52.53;103994.63;5080338;28;20120;-74
2022/03/18 11:15:39;;;;;;;11.20;4.05;;;;;;;15.32;51.65;103982.72;5088707;28;20575;-73
2022/03/18 11:18:11;;;;;;;12.30;3.85;;;;;;;15.50;50.40;103997.25;5086481;28;20381;-72
2022/03/18 11:20:43;;;;;;;11.88;3.60;;;;;;;15.55;49.53;103985.84;5087606;28;20524;-72
2022/03/18 11:23:22;;;;;;;8.52;2.67;;;;;;;15.53;48.35;103988.97;5086149;28;20051;-73
2022/03/18 11:25:57;;;;;;;10.05;3.70;;;;;;;15.76;50.08;103982.88;5097797;28;20054;-73
2022/03/18 11:28:24;;;;;;;15.40;4.05;;;;;;;15.89;49.16;103985.25;5080530;28;20063;-72
2022/03/18 11:31:11;;;;;;;9.80;3.05;;;;;;;16.05;46.42;103988.91;5090373;28;20052;-76
2022/03/18 11:33:38;;;;;;;6.38;3.08;;;;;;;16.15;46.57;103990.38;5081084;28;20044;-72
2022/03/18 11:36:05;;;;;;;10.15;3.53;;;;;;;16.55;46.51;103985.50;5086321;28;20144;-73